sensor_id;sensor_type;location;lat;lon;timestamp;pressure;altitude;pressure_sealevel;temperature;humidity
68145;BME280;55400;51.824;-0.196;2023-11-18T00:00:13;101005.89;;;8.36;81.56
68145;BME280;55400;51.824;-0.196;2023-11-18T00:08:18;101008.76;;;8.39;81.55
68145;BME280;55400;51.824;-0.196;2023-11-18T00:12:13;101008.76;;;8.38;81.55
68145;BME280;55400;51.824;-0.196;2023-11-18T00:16:13;101002.67;;;8.40;81.11
68145;BME280;55400;51.824;-0.196;2023-11-18T00:20:13;101002.67;;;8.39;81.11
68145;BME280;55400;51.824;-0.196;2023-11-18T00:24:13;100997.49;;;8.37;80.66
68145;BME280;55400;51.824;-0.196;2023-11-18T00:32:13;100980.3;;;8.28;80.91
68145;BME280;55400;51.824;-0.196;2023-11-18T00:36:13;100963.62000000001;;;8.26;81.42
68145;BME280;55400;51.824;-0.196;2023-11-18T00:40:13;100963.62000000001;;;8.25;81.95
68145;BME280;55400;51.824;-0.196;2023-11-18T00:44:13;100955.48999999999;;;8.26;82.06
68145;BME280;55400;51.824;-0.196;2023-11-18T00:48:13;100943.33;;;8.25;81.89
68145;BME280;55400;51.824;-0.196;2023-11-18T00:52:13;100931.25;;;8.20;82.05
68145;BME280;55400;51.824;-0.196;2023-11-18T00:56:15;100922.29999999999;;;8.18;82.46
68145;BME280;55400;51.824;-0.196;2023-11-18T01:00:13;100917.33;;;8.19;82.85
68145;BME280;55400;51.824;-0.196;2023-11-18T01:04:13;100912.0;;;8.17;82.84
68145;BME280;55400;51.824;-0.196;2023-11-18T01:08:13;100910.79999999999;;;8.18;83.11
68145;BME280;55400;51.824;-0.196;2023-11-18T01:12:13;100888.07;;;8.16;83.13
68145;BME280;55400;51.824;-0.196;2023-11-18T01:16:13;100878.5;;;8.15;83.51
68145;BME280;55400;51.824;-0.196;2023-11-18T01:20:13;100872.43999999999;;;8.10;83.21
68145;BME280;55400;51.824;-0.196;2023-11-18T01:24:13;100850.66;;;8.09;83.71
68145;BME280;55400;51.824;-0.196;2023-11-18T01:28:13;100842.66;;;8.05;83.49
68145;BME280;55400;51.824;-0.196;2023-11-18T01:32:13;100831.25;;;8.04;84.11
68145;BME280;55400;51.824;-0.196;2023-11-18T01:36:13;100814.25;;;8.01;84.10
68145;BME280;55400;51.824;-0.196;2023-11-18T01:40:13;100813.95;;;7.99;84.74
68145;BME280;55400;51.824;-0.196;2023-11-18T01:44:13;100813.29;;;7.95;84.72
68145;BME280;55400;51.824;-0.196;2023-11-18T01:48:13;100793.12;;;7.96;85.24
68145;BME280;55400;51.824;-0.196;2023-11-18T01:56:13;100776.68;;;7.99;85.19
68145;BME280;55400;51.824;-0.196;2023-11-18T02:00:13;100776.68;;;8.00;85.19
68145;BME280;55400;51.824;-0.196;2023-11-18T02:08:13;100776.42;;;7.99;85.19
68145;BME280;55400;51.824;-0.196;2023-11-18T02:12:16;100756.08;;;7.96;85.67
68145;BME280;55400;51.824;-0.196;2023-11-18T02:16:13;100740.64;;;7.94;86.06
68145;BME280;55400;51.824;-0.196;2023-11-18T02:28:13;100712.39;;;7.96;86.24
68145;BME280;55400;51.824;-0.196;2023-11-18T02:32:15;100703.03;;;7.93;86.39
68145;BME280;55400;51.824;-0.196;2023-11-18T02:40:15;100702.25;;;7.95;86.95
68145;BME280;55400;51.824;-0.196;2023-11-18T02:44:13;100701.23;;;7.99;87.28
68145;BME280;55400;51.824;-0.196;2023-11-18T02:48:13;100695.20999999999;;;8.00;86.88
68145;BME280;55400;51.824;-0.196;2023-11-18T02:52:13;100680.19;;;7.98;86.89
68145;BME280;55400;51.824;-0.196;2023-11-18T03:00:17;100670.67;;;8.01;87.51
68145;BME280;55400;51.824;-0.196;2023-11-18T03:04:13;100653.8;;;8.04;87.53
68145;BME280;55400;51.824;-0.196;2023-11-18T03:12:13;100632.59000000001;;;8.08;87.82
68145;BME280;55400;51.824;-0.196;2023-11-18T03:16:13;100607.22;;;8.07;87.65
68145;BME280;55400;51.824;-0.196;2023-11-18T03:20:14;100607.22;;;8.08;87.65
68145;BME280;55400;51.824;-0.196;2023-11-18T03:24:13;100599.75;;;8.07;87.88
68145;BME280;55400;51.824;-0.196;2023-11-18T03:28:13;100582.37000000001;;;8.05;88.65
68145;BME280;55400;51.824;-0.196;2023-11-18T03:32:13;100582.37000000001;;;8.09;89.28
68145;BME280;55400;51.824;-0.196;2023-11-18T03:36:13;100557.7;;;8.06;88.87
68145;BME280;55400;51.824;-0.196;2023-11-18T03:40:14;100557.7;;;8.07;89.46
68145;BME280;55400;51.824;-0.196;2023-11-18T03:44:13;100557.95000000001;;;8.09;89.74
68145;BME280;55400;51.824;-0.196;2023-11-18T03:48:13;100553.49;;;8.17;89.69
68145;BME280;55400;51.824;-0.196;2023-11-18T03:52:13;100531.95;;;8.14;89.46
68145;BME280;55400;51.824;-0.196;2023-11-18T03:56:16;100524.28;;;8.15;89.87
68145;BME280;55400;51.824;-0.196;2023-11-18T04:00:15;100527.89;;;8.19;90.42
68145;BME280;55400;51.824;-0.196;2023-11-18T04:04:13;100516.26;;;8.25;90.40
68145;BME280;55400;51.824;-0.196;2023-11-18T04:09:06;100507.22;;;8.27;90.42
68145;BME280;55400;51.824;-0.196;2023-11-18T04:12:13;100494.81;;;8.31;90.21
68145;BME280;55400;51.824;-0.196;2023-11-18T04:16:14;100494.81;;;8.32;90.21
68145;BME280;55400;51.824;-0.196;2023-11-18T04:24:14;100492.44;;;8.36;90.96
68145;BME280;55400;51.824;-0.196;2023-11-18T04:28:13;100447.36;;;8.38;90.75
68145;BME280;55400;51.824;-0.196;2023-11-18T04:32:14;100447.36;;;8.41;90.96
68145;BME280;55400;51.824;-0.196;2023-11-18T04:36:13;100427.03;;;8.43;91.34
68145;BME280;55400;51.824;-0.196;2023-11-18T04:40:13;100410.02;;;8.41;91.06
68145;BME280;55400;51.824;-0.196;2023-11-18T04:44:13;100395.87;;;8.44;91.91
68145;BME280;55400;51.824;-0.196;2023-11-18T04:48:14;100382.03;;;8.48;91.26
68145;BME280;55400;51.824;-0.196;2023-11-18T04:52:13;100382.03;;;8.49;91.49
68145;BME280;55400;51.824;-0.196;2023-11-18T04:56:14;100371.03;;;8.52;91.55
68145;BME280;55400;51.824;-0.196;2023-11-18T05:00:14;100365.81;;;8.53;91.64
68145;BME280;55400;51.824;-0.196;2023-11-18T05:04:14;100356.8;;;8.55;92.13
68145;BME280;55400;51.824;-0.196;2023-11-18T05:08:21;100346.14;;;8.59;92.45
68145;BME280;55400;51.824;-0.196;2023-11-18T05:12:14;100345.47;;;8.63;92.18
68145;BME280;55400;51.824;-0.196;2023-11-18T05:20:14;100328.23;;;8.70;92.74
68145;BME280;55400;51.824;-0.196;2023-11-18T05:24:14;100320.5;;;8.68;93.09
68145;BME280;55400;51.824;-0.196;2023-11-18T05:28:15;100320.5;;;8.74;93.91
68145;BME280;55400;51.824;-0.196;2023-11-18T05:32:14;100320.4;;;8.78;93.21
68145;BME280;55400;51.824;-0.196;2023-11-18T05:36:14;100305.62999999999;;;8.84;93.49
68145;BME280;55400;51.824;-0.196;2023-11-18T05:40:14;100300.11;;;8.90;94.23
68145;BME280;55400;51.824;-0.196;2023-11-18T05:44:14;100282.82;;;8.95;93.99
68145;BME280;55400;51.824;-0.196;2023-11-18T05:48:14;100258.73;;;9.03;93.98
68145;BME280;55400;51.824;-0.196;2023-11-18T05:52:14;100264.62;;;9.07;94.08
68145;BME280;55400;51.824;-0.196;2023-11-18T05:56:14;100259.98;;;9.12;94.30
68145;BME280;55400;51.824;-0.196;2023-11-18T06:00:14;100256.26999999999;;;9.21;94.80
68145;BME280;55400;51.824;-0.196;2023-11-18T06:04:14;100256.26999999999;;;9.25;95.18
68145;BME280;55400;51.824;-0.196;2023-11-18T06:08:14;100251.22;;;9.34;95.29
68145;BME280;55400;51.824;-0.196;2023-11-18T06:12:14;100237.15999999999;;;9.37;95.15
68145;BME280;55400;51.824;-0.196;2023-11-18T06:16:14;100219.92;;;9.42;95.19
68145;BME280;55400;51.824;-0.196;2023-11-18T06:20:14;100213.92;;;9.44;95.68
68145;BME280;55400;51.824;-0.196;2023-11-18T06:24:14;100213.92;;;9.50;96.08
68145;BME280;55400;51.824;-0.196;2023-11-18T06:28:14;100212.15;;;9.55;96.55
68145;BME280;55400;51.824;-0.196;2023-11-18T06:32:14;100196.48;;;9.58;96.61
68145;BME280;55400;51.824;-0.196;2023-11-18T06:36:16;100181.95;;;9.64;96.79
68145;BME280;55400;51.824;-0.196;2023-11-18T06:40:14;100189.31;;;9.70;96.72
68145;BME280;55400;51.824;-0.196;2023-11-18T06:44:14;100183.97;;;9.71;96.84
68145;BME280;55400;51.824;-0.196;2023-11-18T06:48:14;100161.65999999999;;;9.72;96.85
68145;BME280;55400;51.824;-0.196;2023-11-18T06:52:14;100161.65999999999;;;9.81;97.31
68145;BME280;55400;51.824;-0.196;2023-11-18T06:56:14;100156.28;;;9.86;97.14
68145;BME280;55400;51.824;-0.196;2023-11-18T07:00:14;100144.62;;;9.87;97.71
68145;BME280;55400;51.824;-0.196;2023-11-18T07:04:14;100127.44;;;9.95;97.27
68145;BME280;55400;51.824;-0.196;2023-11-18T07:08:14;100127.44;;;9.96;97.01
68145;BME280;55400;51.824;-0.196;2023-11-18T07:12:14;100137.48000000001;;;9.98;97.31
68145;BME280;55400;51.824;-0.196;2023-11-18T07:16:14;100105.39;;;9.99;97.45
68145;BME280;55400;51.824;-0.196;2023-11-18T07:20:14;100105.39;;;10.01;97.66
68145;BME280;55400;51.824;-0.196;2023-11-18T07:28:14;100057.5;;;10.07;98.24
68145;BME280;55400;51.824;-0.196;2023-11-18T07:32:14;100057.5;;;10.11;98.24
68145;BME280;55400;51.824;-0.196;2023-11-18T07:36:14;100054.96;;;10.13;98.09
68145;BME280;55400;51.824;-0.196;2023-11-18T07:40:14;100050.33;;;10.17;98.29
68145;BME280;55400;51.824;-0.196;2023-11-18T07:44:14;100059.49;;;10.26;98.16
68145;BME280;55400;51.824;-0.196;2023-11-18T07:48:14;100059.49;;;10.28;98.16
68145;BME280;55400;51.824;-0.196;2023-11-18T07:52:14;100071.59;;;10.29;98.42
68145;BME280;55400;51.824;-0.196;2023-11-18T07:56:14;100081.05;;;10.27;98.68
68145;BME280;55400;51.824;-0.196;2023-11-18T08:04:14;100088.28;;;10.30;98.88
68145;BME280;55400;51.824;-0.196;2023-11-18T08:08:14;100049.03;;;10.31;98.47
68145;BME280;55400;51.824;-0.196;2023-11-18T08:12:14;100057.59000000001;;;10.36;98.94
68145;BME280;55400;51.824;-0.196;2023-11-18T08:16:14;100057.59000000001;;;10.37;98.34
68145;BME280;55400;51.824;-0.196;2023-11-18T08:20:37;100044.42;;;10.44;99.96
68145;BME280;55400;51.824;-0.196;2023-11-18T08:24:14;100044.42;;;10.49;99.96
68145;BME280;55400;51.824;-0.196;2023-11-18T08:28:14;100042.93000000001;;;10.50;99.61
68145;BME280;55400;51.824;-0.196;2023-11-18T08:32:14;100043.58;;;10.57;99.44
68145;BME280;55400;51.824;-0.196;2023-11-18T08:36:14;100034.84;;;10.55;99.54
68145;BME280;55400;51.824;-0.196;2023-11-18T08:40:14;100019.2;;;10.60;99.83
68145;BME280;55400;51.824;-0.196;2023-11-18T08:44:14;100024.45;;;10.62;99.68
68145;BME280;55400;51.824;-0.196;2023-11-18T08:48:14;100016.06;;;10.71;99.57
68145;BME280;55400;51.824;-0.196;2023-11-18T08:52:14;100017.69;;;10.73;100.00
68145;BME280;55400;51.824;-0.196;2023-11-18T08:56:14;100014.54;;;10.75;100.00
68145;BME280;55400;51.824;-0.196;2023-11-18T09:00:14;100014.48000000001;;;10.79;100.00
68145;BME280;55400;51.824;-0.196;2023-11-18T09:04:14;100011.33;;;10.88;100.00
68145;BME280;55400;51.824;-0.196;2023-11-18T09:08:14;100020.76;;;10.96;100.00
68145;BME280;55400;51.824;-0.196;2023-11-18T09:12:14;100007.72;;;10.98;100.00
68145;BME280;55400;51.824;-0.196;2023-11-18T09:16:15;99982.84;;;11.00;100.00
68145;BME280;55400;51.824;-0.196;2023-11-18T09:24:14;99983.95000000001;;;11.08;100.00
68145;BME280;55400;51.824;-0.196;2023-11-18T09:28:14;99959.59;;;11.10;100.00
68145;BME280;55400;51.824;-0.196;2023-11-18T09:32:14;99961.33;;;11.19;100.00
68145;BME280;55400;51.824;-0.196;2023-11-18T09:36:14;99958.5;;;11.23;100.00
68145;BME280;55400;51.824;-0.196;2023-11-18T09:40:14;99959.46;;;11.28;100.00
68145;BME280;55400;51.824;-0.196;2023-11-18T09:44:14;99961.49;;;11.35;100.00
68145;BME280;55400;51.824;-0.196;2023-11-18T09:48:14;99956.98;;;11.39;100.00
68145;BME280;55400;51.824;-0.196;2023-11-18T09:56:16;99949.45999999999;;;11.54;100.00
68145;BME280;55400;51.824;-0.196;2023-11-18T10:00:15;99929.16;;;11.62;100.00
68145;BME280;55400;51.824;-0.196;2023-11-18T10:08:14;99950.06;;;11.71;100.00
68145;BME280;55400;51.824;-0.196;2023-11-18T10:12:14;99950.06;;;11.75;100.00
68145;BME280;55400;51.824;-0.196;2023-11-18T10:16:14;99940.99;;;11.82;100.00
68145;BME280;55400;51.824;-0.196;2023-11-18T10:20:14;99929.35;;;11.86;100.00
68145;BME280;55400;51.824;-0.196;2023-11-18T10:24:14;99943.37000000001;;;11.93;100.00
68145;BME280;55400;51.824;-0.196;2023-11-18T10:28:22;99953.39;;;12.03;100.00
68145;BME280;55400;51.824;-0.196;2023-11-18T10:32:14;99935.20999999999;;;12.07;100.00
68145;BME280;55400;51.824;-0.196;2023-11-18T10:36:18;99948.22;;;12.18;100.00
68145;BME280;55400;51.824;-0.196;2023-11-18T10:40:15;99948.22;;;12.15;100.00
68145;BME280;55400;51.824;-0.196;2023-11-18T10:44:14;99946.7;;;12.23;100.00
68145;BME280;55400;51.824;-0.196;2023-11-18T10:48:15;99950.08;;;12.22;100.00
68145;BME280;55400;51.824;-0.196;2023-11-18T10:52:15;99927.44;;;12.27;100.00
68145;BME280;55400;51.824;-0.196;2023-11-18T10:56:18;99921.77;;;12.33;100.00
68145;BME280;55400;51.824;-0.196;2023-11-18T11:00:14;99952.85;;;12.40;100.00
68145;BME280;55400;51.824;-0.196;2023-11-18T11:04:15;99935.28;;;12.41;100.00
68145;BME280;55400;51.824;-0.196;2023-11-18T11:08:14;99936.63;;;12.46;100.00
68145;BME280;55400;51.824;-0.196;2023-11-18T11:12:15;99924.45;;;12.53;100.00
68145;BME280;55400;51.824;-0.196;2023-11-18T11:16:15;99910.03;;;12.59;100.00
68145;BME280;55400;51.824;-0.196;2023-11-18T11:20:16;99919.06;;;12.63;100.00
68145;BME280;55400;51.824;-0.196;2023-11-18T11:24:17;99919.06;;;12.71;100.00
68145;BME280;55400;51.824;-0.196;2023-11-18T11:28:16;99910.14;;;12.73;100.00
68145;BME280;55400;51.824;-0.196;2023-11-18T11:32:16;99914.84;;;12.77;100.00
68145;BME280;55400;51.824;-0.196;2023-11-18T11:36:15;99897.69;;;12.80;100.00
68145;BME280;55400;51.824;-0.196;2023-11-18T11:40:15;99897.69;;;12.86;100.00
68145;BME280;55400;51.824;-0.196;2023-11-18T11:44:15;99899.1;;;12.92;100.00
68145;BME280;55400;51.824;-0.196;2023-11-18T11:48:15;99883.84;;;12.96;100.00
68145;BME280;55400;51.824;-0.196;2023-11-18T11:52:16;99883.84;;;13.00;100.00
68145;BME280;55400;51.824;-0.196;2023-11-18T11:56:15;99874.01999999999;;;13.06;100.00
68145;BME280;55400;51.824;-0.196;2023-11-18T12:00:15;99862.91;;;13.11;100.00
68145;BME280;55400;51.824;-0.196;2023-11-18T12:04:15;99862.91;;;13.13;100.00
68145;BME280;55400;51.824;-0.196;2023-11-18T12:08:16;99862.58;;;13.21;100.00
68145;BME280;55400;51.824;-0.196;2023-11-18T12:12:16;99862.58;;;13.23;100.00
68145;BME280;55400;51.824;-0.196;2023-11-18T12:16:15;99864.20000000001;;;13.27;100.00
68145;BME280;55400;51.824;-0.196;2023-11-18T12:24:15;99873.08;;;13.27;100.00
68145;BME280;55400;51.824;-0.196;2023-11-18T12:28:15;99884.23;;;13.32;100.00
68145;BME280;55400;51.824;-0.196;2023-11-18T12:32:18;99883.34;;;13.35;100.00
68145;BME280;55400;51.824;-0.196;2023-11-18T12:36:22;99881.84;;;13.34;100.00
68145;BME280;55400;51.824;-0.196;2023-11-18T12:40:23;99894.36;;;13.37;100.00
68145;BME280;55400;51.824;-0.196;2023-11-18T12:44:15;99892.16;;;13.43;100.00
68145;BME280;55400;51.824;-0.196;2023-11-18T12:49:39;99892.58;;;13.38;unavailable
68145;BME280;55400;51.824;-0.196;2023-11-18T12:56:15;99893.3;;;13.39;100.00
68145;BME280;55400;51.824;-0.196;2023-11-18T13:00:15;99893.3;;;13.38;100.00
68145;BME280;55400;51.824;-0.196;2023-11-18T13:04:15;99902.18;;;13.42;100.00
68145;BME280;55400;51.824;-0.196;2023-11-18T13:08:15;99886.37999999999;;;13.43;100.00
68145;BME280;55400;51.824;-0.196;2023-11-18T13:12:15;99862.99;;;13.45;100.00
68145;BME280;55400;51.824;-0.196;2023-11-18T13:16:15;99862.99;;;13.52;100.00
68145;BME280;55400;51.824;-0.196;2023-11-18T13:20:15;99862.15;;;13.58;100.00
68145;BME280;55400;51.824;-0.196;2023-11-18T13:24:15;99848.89;;;13.63;100.00
68145;BME280;55400;51.824;-0.196;2023-11-18T13:28:15;99862.36;;;13.64;100.00
68145;BME280;55400;51.824;-0.196;2023-11-18T13:36:15;99852.0;;;13.64;100.00
68145;BME280;55400;51.824;-0.196;2023-11-18T13:40:15;99860.37;;;13.60;100.00
68145;BME280;55400;51.824;-0.196;2023-11-18T13:45:05;99842.22;;;13.59;100.00
68145;BME280;55400;51.824;-0.196;2023-11-18T13:50:21;99855.52;;;13.56;100.00
68145;BME280;55400;51.824;-0.196;2023-11-18T13:52:37;99862.11;;;13.52;100.00
68145;BME280;55400;51.824;-0.196;2023-11-18T13:56:15;99859.81;;;13.50;100.00
68145;BME280;55400;51.824;-0.196;2023-11-18T14:00:15;99859.81;;;13.52;100.00
68145;BME280;55400;51.824;-0.196;2023-11-18T14:04:15;99841.26;;;13.48;100.00
68145;BME280;55400;51.824;-0.196;2023-11-18T14:12:15;99838.94;;;13.43;100.00
68145;BME280;55400;51.824;-0.196;2023-11-18T14:16:15;99843.14;;;13.45;100.00
68145;BME280;55400;51.824;-0.196;2023-11-18T14:20:15;99838.33;;;13.38;100.00
68145;BME280;55400;51.824;-0.196;2023-11-18T14:24:15;99832.2;;;13.40;100.00
68145;BME280;55400;51.824;-0.196;2023-11-18T14:28:15;99830.7;;;13.45;100.00
68145;BME280;55400;51.824;-0.196;2023-11-18T14:32:15;99836.37999999999;;;13.46;100.00
68145;BME280;55400;51.824;-0.196;2023-11-18T14:36:15;99836.37999999999;;;13.39;100.00
68145;BME280;55400;51.824;-0.196;2023-11-18T14:40:15;99816.42;;;13.44;100.00
68145;BME280;55400;51.824;-0.196;2023-11-18T14:44:15;99816.42;;;13.41;100.00
68145;BME280;55400;51.824;-0.196;2023-11-18T14:48:15;99818.33;;;13.39;100.00
68145;BME280;55400;51.824;-0.196;2023-11-18T14:52:15;99818.02;;;13.35;100.00
68145;BME280;55400;51.824;-0.196;2023-11-18T14:56:15;99818.02;;;13.33;100.00
68145;BME280;55400;51.824;-0.196;2023-11-18T15:00:15;99813.92;;;13.32;100.00
68145;BME280;55400;51.824;-0.196;2023-11-18T15:04:43;99811.73999999999;;;13.30;100.00
68145;BME280;55400;51.824;-0.196;2023-11-18T15:08:15;99794.26;;;13.31;100.00
68145;BME280;55400;51.824;-0.196;2023-11-18T15:12:15;99794.26;;;13.29;100.00
68145;BME280;55400;51.824;-0.196;2023-11-18T15:20:15;99782.2;;;13.30;100.00
68145;BME280;55400;51.824;-0.196;2023-11-18T15:24:15;99776.17;;;13.28;100.00
68145;BME280;55400;51.824;-0.196;2023-11-18T15:28:15;99766.27;;;13.29;100.00
68145;BME280;55400;51.824;-0.196;2023-11-18T15:32:16;99763.34000000001;;;13.33;100.00
68145;BME280;55400;51.824;-0.196;2023-11-18T15:36:15;99787.61;;;13.26;100.00
68145;BME280;55400;51.824;-0.196;2023-11-18T15:40:16;99824.55;;;13.24;100.00
68145;BME280;55400;51.824;-0.196;2023-11-18T15:44:15;99824.55;;;13.22;100.00
68145;BME280;55400;51.824;-0.196;2023-11-18T15:48:15;99811.14;;;13.24;100.00
68145;BME280;55400;51.824;-0.196;2023-11-18T15:52:15;99811.14;;;13.21;100.00
68145;BME280;55400;51.824;-0.196;2023-11-18T15:56:15;99803.41;;;13.20;100.00
68145;BME280;55400;51.824;-0.196;2023-11-18T16:00:16;99787.23999999999;;;13.21;100.00
68145;BME280;55400;51.824;-0.196;2023-11-18T16:04:15;99820.04;;;13.19;100.00
68145;BME280;55400;51.824;-0.196;2023-11-18T16:08:15;99805.83;;;13.13;100.00
68145;BME280;55400;51.824;-0.196;2023-11-18T16:12:15;99793.04;;;13.17;100.00
68145;BME280;55400;51.824;-0.196;2023-11-18T16:16:15;99796.56;;;13.13;100.00
68145;BME280;55400;51.824;-0.196;2023-11-18T16:20:16;99772.43;;;13.29;100.00
68145;BME280;55400;51.824;-0.196;2023-11-18T16:24:15;99772.43;;;13.47;100.00
68145;BME280;55400;51.824;-0.196;2023-11-18T16:28:15;99745.04;;;13.54;99.48
68145;BME280;55400;51.824;-0.196;2023-11-18T16:32:15;99745.04;;;13.63;97.95
68145;BME280;55400;51.824;-0.196;2023-11-18T16:40:16;99776.17;;;13.69;97.30
68145;BME280;55400;51.824;-0.196;2023-11-18T16:45:52;99767.92;;;13.72;95.74
68145;BME280;55400;51.824;-0.196;2023-11-18T16:49:06;99766.47;;;13.77;95.56
68145;BME280;55400;51.824;-0.196;2023-11-18T16:50:59;99766.47;;;13.83;95.56
68145;BME280;55400;51.824;-0.196;2023-11-18T16:54:58;99772.64;;;13.75;93.68
68145;BME280;55400;51.824;-0.196;2023-11-18T16:58:59;99766.78;;;13.73;94.24
68145;BME280;55400;51.824;-0.196;2023-11-18T17:06:59;99779.98999999999;;;13.75;93.94
68145;BME280;55400;51.824;-0.196;2023-11-18T17:14:59;99770.23000000001;;;13.76;93.76
68145;BME280;55400;51.824;-0.196;2023-11-18T17:18:59;99770.23000000001;;;13.67;93.76
68145;BME280;55400;51.824;-0.196;2023-11-18T17:22:59;99776.33;;;13.72;94.35
68145;BME280;55400;51.824;-0.196;2023-11-18T17:26:59;99777.9;;;13.66;93.86
68145;BME280;55400;51.824;-0.196;2023-11-18T17:30:59;99782.65;;;13.67;94.51
68145;BME280;55400;51.824;-0.196;2023-11-18T17:34:59;99782.65;;;13.66;94.04
68145;BME280;55400;51.824;-0.196;2023-11-18T17:38:59;99769.87000000001;;;13.63;93.55
68145;BME280;55400;51.824;-0.196;2023-11-18T17:42:59;99769.87000000001;;;13.61;93.10
68145;BME280;55400;51.824;-0.196;2023-11-18T17:46:59;99770.08;;;13.62;92.81
68145;BME280;55400;51.824;-0.196;2023-11-18T17:50:59;99781.41;;;13.61;92.81
68145;BME280;55400;51.824;-0.196;2023-11-18T17:54:59;99781.41;;;13.58;92.79
68145;BME280;55400;51.824;-0.196;2023-11-18T17:58:59;99774.27;;;13.55;93.16
68145;BME280;55400;51.824;-0.196;2023-11-18T18:02:59;99778.05;;;13.53;92.67
68145;BME280;55400;51.824;-0.196;2023-11-18T18:06:59;99757.42;;;13.55;92.93
68145;BME280;55400;51.824;-0.196;2023-11-18T18:10:59;99744.02;;;13.53;92.59
68145;BME280;55400;51.824;-0.196;2023-11-18T18:14:59;99742.76999999999;;;13.52;92.92
68145;BME280;55400;51.824;-0.196;2023-11-18T18:18:59;99748.38;;;13.60;92.93
68145;BME280;55400;51.824;-0.196;2023-11-18T18:22:59;99749.56;;;13.53;92.57
68145;BME280;55400;51.824;-0.196;2023-11-18T18:26:59;99748.8;;;13.54;92.44
68145;BME280;55400;51.824;-0.196;2023-11-18T18:30:59;99744.38;;;13.52;92.09
68145;BME280;55400;51.824;-0.196;2023-11-18T18:34:59;99751.03;;;13.48;92.00
68145;BME280;55400;51.824;-0.196;2023-11-18T18:42:59;99755.7;;;13.49;92.35
68145;BME280;55400;51.824;-0.196;2023-11-18T18:46:59;99773.01999999999;;;13.54;92.56
68145;BME280;55400;51.824;-0.196;2023-11-18T18:50:59;99786.43;;;13.52;92.35
68145;BME280;55400;51.824;-0.196;2023-11-18T18:56:11;99779.28;;;13.50;unavailable
68145;BME280;55400;51.824;-0.196;2023-11-18T18:58:59;99779.28;;;13.51;92.33
68145;BME280;55400;51.824;-0.196;2023-11-18T19:02:59;99778.12;;;13.48;91.96
68145;BME280;55400;51.824;-0.196;2023-11-18T19:06:59;99776.62;;;13.46;91.37
68145;BME280;55400;51.824;-0.196;2023-11-18T19:10:59;99773.5;;;13.44;91.44
68145;BME280;55400;51.824;-0.196;2023-11-18T19:14:59;99776.45;;;13.43;91.73
68145;BME280;55400;51.824;-0.196;2023-11-18T19:18:59;99780.83;;;13.46;91.54
68145;BME280;55400;51.824;-0.196;2023-11-18T19:22:59;99777.55;;;13.47;91.06
68145;BME280;55400;51.824;-0.196;2023-11-18T19:26:59;99781.61;;;13.43;90.90
68145;BME280;55400;51.824;-0.196;2023-11-18T19:30:59;99776.28;;;13.40;91.03
68145;BME280;55400;51.824;-0.196;2023-11-18T19:34:59;99780.73000000001;;;13.38;91.20
68145;BME280;55400;51.824;-0.196;2023-11-18T19:38:59;99774.05;;;13.39;90.90
68145;BME280;55400;51.824;-0.196;2023-11-18T19:44:11;99768.53;;;13.46;90.43
68145;BME280;55400;51.824;-0.196;2023-11-18T19:46:59;99759.19;;;13.42;90.43
68145;BME280;55400;51.824;-0.196;2023-11-18T19:50:59;99759.19;;;13.44;90.33
68145;BME280;55400;51.824;-0.196;2023-11-18T19:54:59;99752.20000000001;;;13.36;89.39
68145;BME280;55400;51.824;-0.196;2023-11-18T19:58:59;99777.4;;;13.40;89.26
68145;BME280;55400;51.824;-0.196;2023-11-18T20:02:59;99775.51999999999;;;13.33;88.05
68145;BME280;55400;51.824;-0.196;2023-11-18T20:06:59;99775.51999999999;;;13.24;87.68
68145;BME280;55400;51.824;-0.196;2023-11-18T20:10:59;99771.31000000001;;;13.23;87.68
68145;BME280;55400;51.824;-0.196;2023-11-18T20:18:59;99768.26;;;13.17;86.60
68145;BME280;55400;51.824;-0.196;2023-11-18T20:22:59;99774.68000000001;;;13.22;86.60
68145;BME280;55400;51.824;-0.196;2023-11-18T20:26:59;99774.68000000001;;;13.21;85.82
68145;BME280;55400;51.824;-0.196;2023-11-18T20:30:59;99775.7;;;13.19;85.03
68145;BME280;55400;51.824;-0.196;2023-11-18T20:34:59;99780.07;;;13.12;84.55
68145;BME280;55400;51.824;-0.196;2023-11-18T20:38:59;99790.84;;;13.13;85.33
68145;BME280;55400;51.824;-0.196;2023-11-18T20:42:59;99783.77;;;13.03;83.98
68145;BME280;55400;51.824;-0.196;2023-11-18T20:46:59;99784.12;;;13.05;84.60
68145;BME280;55400;51.824;-0.196;2023-11-18T20:51:00;99784.14;;;13.06;84.87
68145;BME280;55400;51.824;-0.196;2023-11-18T20:54:59;99784.14;;;13.05;84.52
68145;BME280;55400;51.824;-0.196;2023-11-18T20:58:59;99780.98999999999;;;12.99;84.93
68145;BME280;55400;51.824;-0.196;2023-11-18T21:02:59;99780.55;;;12.95;84.98
68145;BME280;55400;51.824;-0.196;2023-11-18T21:06:59;99768.76999999999;;;12.99;84.91
68145;BME280;55400;51.824;-0.196;2023-11-18T21:10:59;99768.11;;;12.97;83.73
68145;BME280;55400;51.824;-0.196;2023-11-18T21:18:59;99782.64;;;12.95;83.61
68145;BME280;55400;51.824;-0.196;2023-11-18T21:22:59;99783.12;;;12.90;84.04
68145;BME280;55400;51.824;-0.196;2023-11-18T21:26:59;99775.86;;;12.87;84.50
68145;BME280;55400;51.824;-0.196;2023-11-18T21:34:59;99779.47;;;12.82;82.12
68145;BME280;55400;51.824;-0.196;2023-11-18T21:38:59;99779.88;;;12.80;83.33
68145;BME280;55400;51.824;-0.196;2023-11-18T21:42:59;99767.4;;;12.87;82.97
68145;BME280;55400;51.824;-0.196;2023-11-18T21:50:59;99749.55;;;12.74;81.59
68145;BME280;55400;51.824;-0.196;2023-11-18T21:54:59;99751.44;;;12.72;81.86
68145;BME280;55400;51.824;-0.196;2023-11-18T21:58:59;99754.45999999999;;;12.66;82.80
68145;BME280;55400;51.824;-0.196;2023-11-18T22:02:59;99757.01000000001;;;12.68;81.94
68145;BME280;55400;51.824;-0.196;2023-11-18T22:06:59;99757.01000000001;;;12.64;81.94
68145;BME280;55400;51.824;-0.196;2023-11-18T22:10:59;99773.51999999999;;;12.70;82.30
68145;BME280;55400;51.824;-0.196;2023-11-18T22:14:59;99773.51999999999;;;12.65;82.30